Time;durP1;ratioP1;P1;durP2;ratioP2;P2;SDS_P1;SDS_P2;PMS_P1;PMS_P2;Temp;Humidity;BMP_temperature;BMP_pressure;BME280_temperature;BME280_humidity;BME280_pressure;Samples;Min_cycle;Max_cycle;Signal;HPM_P1;HPM_P2
2022/01/16 00:04:07;;;;;;;;;56.25;44.50;;;;;1.94;69.65;102025.38;5062428;28;45406;-65
2022/01/16 00:06:45;;;;;;;;;66.25;46.50;;;;;1.96;69.47;102024.53;5042389;28;45366;-66
2022/01/16 00:09:11;;;;;;;;;66.25;52.00;;;;;2.08;68.85;102026.28;5058658;28;45569;-64
2022/01/16 00:11:37;;;;;;;;;71.50;51.75;;;;;2.07;69.30;102014.03;5062781;28;45423;-63
2022/01/16 00:14:06;;;;;;;;;64.75;48.00;;;;;2.12;69.20;102008.81;5062495;28;45446;-63
2022/01/16 00:16:33;;;;;;;;;64.25;49.50;;;;;2.12;69.10;102035.94;5062771;28;45538;-68
2022/01/16 00:18:58;;;;;;;;;74.75;56.50;;;;;2.05;69.01;102036.78;5044357;28;46877;-69
2022/01/16 00:21:36;;;;;;;;;49.25;46.00;;;;;2.11;68.80;102028.94;5062243;28;45340;-66
2022/01/16 00:24:03;;;;;;;;;63.25;48.50;;;;;2.20;68.53;102026.31;5062198;28;45410;-70
2022/01/16 00:26:28;;;;;;;;;64.50;48.25;;;;;2.23;68.46;102031.59;5042566;28;45292;-66
2022/01/16 00:28:54;;;;;;;;;51.00;43.50;;;;;2.27;68.10;102050.81;5042173;28;45451;-67
2022/01/16 00:31:21;;;;;;;;;53.00;48.00;;;;;2.25;68.14;102053.47;5061605;28;45343;-65
2022/01/16 00:33:47;;;;;;;;;61.00;45.25;;;;;2.22;67.76;102069.22;5062084;28;45233;-68
2022/01/16 00:36:18;;;;;;;;;65.75;52.00;;;;;2.19;68.11;102071.81;5040348;28;45365;-67
2022/01/16 00:38:45;;;;;;;;;70.75;48.25;;;;;2.13;68.16;102063.94;5061676;28;46252;-67
2022/01/16 00:41:17;;;;;;;;;54.75;43.25;;;;;2.16;68.15;102042.94;5060796;28;45465;-67
2022/01/16 00:43:44;;;;;;;;;64.25;47.75;;;;;2.09;67.64;102025.44;5062116;28;45361;-69
2022/01/16 00:46:10;;;;;;;;;62.00;50.25;;;;;2.10;67.77;102045.56;5026651;28;45213;-68
2022/01/16 00:48:36;;;;;;;;;51.75;44.75;;;;;2.05;67.27;102029.78;5061563;28;46294;-66
2022/01/16 00:51:01;;;;;;;;;66.00;48.00;;;;;2.07;67.88;102038.53;5061666;28;45443;-67
2022/01/16 00:53:27;;;;;;;;;54.75;48.25;;;;;2.05;68.04;102042.03;5059895;28;45499;-66
2022/01/16 00:55:52;;;;;;;;;55.00;48.00;;;;;2.07;67.53;102053.41;5043668;28;45523;-64
2022/01/16 00:58:17;;;;;;;;;57.75;50.25;;;;;1.99;67.51;102065.66;5061182;28;47482;-63
2022/01/16 01:00:43;;;;;;;;;65.00;52.50;;;;;1.95;67.98;102058.63;5061493;28;45268;-61
2022/01/16 01:03:08;;;;;;;;;58.50;43.75;;;;;1.95;67.78;102104.13;5061008;28;45414;-63
2022/01/16 01:05:34;;;;;;;;;65.75;49.25;;;;;2.04;67.88;102079.66;5061791;28;45649;-63
2022/01/16 01:08:01;;;;;;;;;60.75;48.50;;;;;2.02;67.64;102105.88;5023912;28;46602;-65
2022/01/16 01:10:34;;;;;;;;;70.00;52.00;;;;;2.01;67.79;102082.25;5057838;28;45387;-63
2022/01/16 01:13:09;;;;;;;;;63.00;47.50;;;;;1.97;68.00;102115.50;5058305;28;45385;-70
2022/01/16 01:15:47;;;;;;;;;70.75;52.00;;;;;1.99;67.80;102098.00;5058197;28;45355;-66
2022/01/16 01:18:14;;;;;;;;;35.50;15.50;;;;;1.89;67.87;102092.72;5057950;28;46322;-65
2022/01/16 01:20:42;;;;;;;;;68.25;50.25;;;;;1.91;67.71;102080.47;5057674;28;45581;-68
2022/01/16 01:23:08;;;;;;;;;73.25;50.25;;;;;1.94;68.30;102046.38;5057676;28;45364;-67
2022/01/16 01:25:34;;;;;;;;;62.00;51.75;;;;;1.86;68.71;102001.78;5058535;28;45569;-70
2022/01/16 01:28:00;;;;;;;;;57.25;47.00;;;;;1.93;68.36;102007.91;5057637;28;47116;-66
2022/01/16 01:30:25;;;;;;;;;57.00;45.50;;;;;1.94;68.31;102007.03;5057023;28;45507;-67
2022/01/16 01:32:53;;;;;;;;;63.00;50.50;;;;;1.87;68.36;101987.78;5058635;28;45362;-67
2022/01/16 01:35:19;;;;;;;;;62.25;49.00;;;;;1.94;68.21;101999.16;5057164;28;45465;-67
2022/01/16 01:37:46;;;;;;;;;65.75;47.50;;;;;1.97;68.39;102034.16;5058146;28;45391;-63
2022/01/16 01:40:15;;;;;;;;;55.50;45.75;;;;;2.01;68.44;102054.28;5057803;28;45427;-66
2022/01/16 01:43:05;;;;;;;;;61.00;48.75;;;;;2.01;68.63;102064.78;5057878;28;45327;-64
2022/01/16 01:51:16;;;;;;;;;54.50;45.00;;;;;1.96;68.96;102097.13;5057365;28;45387;-61
2022/01/16 01:53:43;;;;;;;;;54.00;46.25;;;;;2.03;68.83;102106.75;5058065;28;45331;-66
2022/01/16 01:56:12;;;;;;;;;44.00;36.00;;;;;2.05;69.14;102108.50;5057368;28;45458;-60
2022/01/16 01:58:38;;;;;;;;;69.75;47.50;;;;;1.94;69.79;102104.97;5037550;28;46215;-64
2022/01/16 02:01:04;;;;;;;;;65.50;53.50;;;;;1.96;70.26;102107.63;5053515;28;45351;-64
2022/01/16 02:06:06;;;;;;;;;52.50;44.75;;;;;1.92;70.04;102121.59;5057652;28;45341;-68
2022/01/16 02:08:31;;;;;;;;;55.25;45.00;;;;;2.06;69.95;102151.38;5022184;28;46725;-67
2022/01/16 02:11:01;;;;;;;;;65.50;49.50;;;;;2.14;69.61;102147.03;5056530;28;45481;-64
2022/01/16 02:13:31;;;;;;;;;62.50;47.50;;;;;2.14;70.05;102133.03;5038514;28;45502;-68
2022/01/16 02:34:41;;;;;;;;;60.25;51.25;;;;;2.02;70.24;102142.63;5056877;28;45872;-63
2022/01/16 02:37:11;;;;;;;;;70.00;48.25;;;;;2.07;70.14;102132.13;5056883;28;45562;-63
2022/01/16 02:39:40;;;;;;;;;71.50;49.25;;;;;2.00;70.31;102125.13;5057560;28;45959;-68
2022/01/16 02:42:08;;;;;;;;;50.00;46.25;;;;;2.05;70.60;102120.75;5057036;28;45505;-68
2022/01/16 02:44:43;;;;;;;;;60.25;48.00;;;;;2.00;71.23;102114.63;5056440;28;45311;-63
2022/01/16 02:47:18;;;;;;;;;66.75;49.00;;;;;1.96;70.90;102116.38;5057117;28;45513;-64
2022/01/16 02:49:47;;;;;;;;;71.00;53.50;;;;;2.04;71.13;102121.63;5038725;28;46339;-69
2022/01/16 02:52:16;;;;;;;;;70.00;56.25;;;;;2.10;70.69;102118.16;5056616;28;45351;-60
2022/01/16 02:54:44;;;;;;;;;60.75;48.50;;;;;2.10;70.75;102108.53;5036750;28;45472;-63
2022/01/16 02:57:15;;;;;;;;;74.25;55.50;;;;;2.12;71.50;102101.53;5057480;28;45497;-69
2022/01/16 02:59:47;;;;;;;;;69.50;52.25;;;;;2.08;71.06;102097.13;5056635;28;45511;-64
2022/01/16 03:02:13;;;;;;;;;69.75;50.25;;;;;2.12;71.90;102093.69;5037837;28;45371;-64
2022/01/16 03:04:39;;;;;;;;;63.75;51.75;;;;;2.07;71.78;102088.38;5056292;28;45315;-64
2022/01/16 03:07:05;;;;;;;;;73.75;52.00;;;;;2.13;71.41;102090.19;5056522;28;45190;-66
2022/01/16 03:09:53;;;;;;;;;74.25;52.00;;;;;2.14;71.68;102081.44;5056037;28;46055;-64
2022/01/16 03:12:17;;;;;;;;;73.50;53.00;;;;;2.18;71.02;102077.06;5055786;28;45319;-65
2022/01/16 03:14:42;;;;;;;;;62.50;47.50;;;;;2.18;71.19;102083.19;5056402;28;45383;-66
2022/01/16 03:17:09;;;;;;;;;66.50;52.00;;;;;2.25;70.67;102089.34;5038945;28;45517;-63
2022/01/16 03:22:18;;;;;;;;;60.50;48.00;;;;;2.30;70.80;102074.44;5055240;28;45335;-63
2022/01/16 03:24:45;;;;;;;;;69.00;52.50;;;;;2.31;69.62;102079.69;5055843;28;45457;-64
2022/01/16 03:27:20;;;;;;;;;67.00;51.75;;;;;2.30;70.08;102077.94;5038756;28;45657;-68
2022/01/16 03:29:52;;;;;;;;;65.75;50.00;;;;;2.33;69.55;102095.44;5055558;28;45247;-62
2022/01/16 03:32:21;;;;;;;;;67.50;52.25;;;;;2.39;69.64;102092.84;5053477;28;45366;-61
2022/01/16 03:34:47;;;;;;;;;64.25;46.75;;;;;2.41;69.35;102074.47;5053257;28;45765;-63
2022/01/16 03:37:13;;;;;;;;;65.75;52.00;;;;;2.35;69.52;102060.47;5056350;28;45597;-65
2022/01/16 03:39:39;;;;;;;;;66.50;51.50;;;;;2.47;69.17;102096.34;5056050;28;45292;-65
2022/01/16 03:42:05;;;;;;;;;65.50;46.25;;;;;2.40;70.03;102093.72;5038002;28;45314;-68
2022/01/16 03:44:31;;;;;;;;;68.50;50.25;;;;;2.31;69.61;102095.44;5055469;28;45459;-63
2022/01/16 03:46:57;;;;;;;;;72.50;56.25;;;;;2.38;69.82;102090.22;5038093;28;45608;-62
2022/01/16 03:49:29;;;;;;;;;67.25;45.50;;;;;2.48;70.24;102081.50;5037415;28;46550;-61
2022/01/16 03:51:56;;;;;;;;;71.00;54.25;;;;;2.50;69.58;102079.75;5038092;28;45254;-69
2022/01/16 03:54:23;;;;;;;;;66.50;53.75;;;;;2.44;70.12;102071.84;5055821;28;45358;-67
2022/01/16 03:56:50;;;;;;;;;66.75;51.75;;;;;2.51;69.14;102086.75;5037785;28;45536;-68
2022/01/16 03:59:16;;;;;;;;;68.25;52.50;;;;;2.53;69.71;102080.63;5036949;28;47187;-67
2022/01/16 04:01:41;;;;;;;;;64.75;49.00;;;;;2.52;69.44;102078.00;5037887;28;45306;-69
2022/01/16 04:04:09;;;;;;;;;68.00;50.75;;;;;2.60;69.01;102097.22;5055372;28;45465;-70
2022/01/16 04:06:34;;;;;;;;;62.75;51.75;;;;;2.59;69.64;102084.97;5055786;28;45410;-71
2022/01/16 04:09:00;;;;;;;;;68.00;53.50;;;;;2.63;69.78;102090.25;5054858;28;46236;-70
2022/01/16 04:11:27;;;;;;;;;75.75;54.00;;;;;2.67;69.40;102102.50;5055655;28;45296;-69
2022/01/16 04:14:03;;;;;;;;;73.50;53.00;;;;;2.70;69.48;102106.88;5043792;28;45477;-67
2022/01/16 04:16:28;;;;;;;;;67.75;53.50;;;;;2.72;69.31;102107.75;5056077;28;45323;-69
2022/01/16 04:18:54;;;;;;;;;64.25;52.00;;;;;2.72;69.43;102113.00;5055263;28;45378;-67
2022/01/16 04:21:21;;;;;;;;;58.75;49.00;;;;;2.71;69.65;102127.00;5054911;28;45452;-69
2022/01/16 04:23:47;;;;;;;;;67.75;53.25;;;;;2.72;69.20;102128.75;5041623;28;45305;-69
2022/01/16 04:26:14;;;;;;;;;67.00;53.50;;;;;2.64;68.72;102126.16;5055347;28;45443;-69
2022/01/16 04:28:41;;;;;;;;;59.25;48.25;;;;;2.59;69.09;102129.63;5055689;28;45447;-66
2022/01/16 04:31:06;;;;;;;;;65.25;51.75;;;;;2.64;69.12;102141.91;5054213;28;45470;-69
2022/01/16 04:33:32;;;;;;;;;70.25;54.50;;;;;2.63;69.21;102149.78;5054716;28;45473;-66
2022/01/16 04:35:57;;;;;;;;;54.50;45.00;;;;;2.60;69.45;102144.50;5055645;28;45474;-65
2022/01/16 04:38:22;;;;;;;;;75.00;59.00;;;;;2.68;69.05;102158.53;5055011;28;45556;-66
2022/01/16 04:43:47;;;;;;;;;63.75;52.00;;;;;2.56;69.61;102150.66;5041895;28;45355;-62
2022/01/16 04:46:24;;;;;;;;;67.50;51.25;;;;;2.64;69.45;102148.91;5027015;28;45251;-64
2022/01/16 04:48:52;;;;;;;;;69.00;52.00;;;;;2.73;69.66;102140.16;5058864;28;46703;-69
2022/01/16 04:51:18;;;;;;;;;68.00;51.00;;;;;2.80;69.65;102155.06;5040721;28;45478;-64
2022/01/16 04:53:44;;;;;;;;;65.25;49.50;;;;;2.82;69.42;102129.66;5059096;28;45450;-63
2022/01/16 04:56:10;;;;;;;;;61.50;47.50;;;;;2.76;69.45;102119.16;5058246;28;45407;-67
2022/01/16 04:58:36;;;;;;;;;71.25;54.50;;;;;2.80;69.54;102150.69;5058366;28;47084;-63
2022/01/16 05:01:03;;;;;;;;;62.50;49.50;;;;;2.76;69.22;102159.44;5058323;28;45320;-65
2022/01/16 05:03:30;;;;;;;;;68.75;55.00;;;;;2.73;69.93;102164.66;5020458;28;45251;-65
2022/01/16 05:05:55;;;;;;;;;72.75;51.00;;;;;2.68;69.60;102163.81;5038697;28;45379;-66
2022/01/16 05:08:21;;;;;;;;;76.75;53.00;;;;;2.62;70.03;102159.44;5041604;28;45392;-64
2022/01/16 05:10:48;;;;;;;;;69.50;49.50;;;;;2.59;70.17;102158.53;5057843;28;46736;-62
2022/01/16 05:16:35;;;;;;;;;64.50;45.75;;;;;2.51;70.60;102152.41;5058261;28;45600;-66
2022/01/16 05:18:47;;;;;;;;;59.25;47.75;;;;;2.47;70.51;102171.63;5058295;28;45292;-65
2022/01/16 05:21:13;;;;;;;;;47.75;42.50;;;;;2.45;71.23;102171.63;5057568;28;45260;-68
2022/01/16 05:23:39;;;;;;;;;66.75;48.00;;;;;2.45;71.12;102165.50;5057905;28;45221;-61
2022/01/16 05:26:06;;;;;;;;;59.25;48.50;;;;;2.44;71.06;102179.50;5057912;28;45533;-63
2022/01/16 05:28:31;;;;;;;;;54.75;48.25;;;;;2.42;71.85;102183.88;5057729;28;46176;-67
2022/01/16 05:30:57;;;;;;;;;57.50;46.50;;;;;2.33;71.46;102188.22;5057473;28;45386;-66
2022/01/16 05:33:22;;;;;;;;;56.25;45.00;;;;;2.22;71.92;102182.06;5057577;28;45367;-65
2022/01/16 05:35:48;;;;;;;;;44.50;37.00;;;;;2.22;72.28;102208.31;5044058;28;45328;-69
2022/01/16 05:38:13;;;;;;;;;52.75;42.00;;;;;2.23;72.93;102212.69;5052042;28;45445;-62
2022/01/16 05:40:39;;;;;;;;;57.00;45.50;;;;;2.21;72.17;102203.03;5058067;28;45407;-63
2022/01/16 05:43:05;;;;;;;;;50.75;45.00;;;;;2.21;72.68;102198.66;5057546;28;45437;-61
2022/01/16 05:45:31;;;;;;;;;52.50;47.25;;;;;2.20;72.81;102188.16;5058014;28;45601;-67
2022/01/16 05:47:56;;;;;;;;;55.00;44.25;;;;;2.27;72.56;102179.47;5039549;28;46825;-62
2022/01/16 05:50:23;;;;;;;;;56.75;43.25;;;;;2.20;73.11;102207.41;5056239;28;45422;-64
2022/01/16 05:52:48;;;;;;;;;54.50;46.00;;;;;2.12;73.05;102208.28;5057807;28;45189;-68
2022/01/16 05:55:15;;;;;;;;;52.25;44.50;;;;;2.21;72.96;102209.16;5057442;28;45220;-66
2022/01/16 05:57:41;;;;;;;;;52.00;44.00;;;;;2.18;73.50;102209.16;5057470;28;46220;-69
2022/01/16 06:00:08;;;;;;;;;58.75;44.50;;;;;2.16;72.94;102208.28;5057336;28;45444;-68
2022/01/16 06:02:34;;;;;;;;;41.00;30.50;;;;;2.15;73.50;102201.28;5057003;28;45528;-68
2022/01/16 06:04:59;;;;;;;;;49.75;34.75;;;;;2.19;73.42;102199.53;5057896;28;45617;-68
2022/01/16 06:07:25;;;;;;;;;54.25;43.50;;;;;2.22;73.57;102182.06;5031417;28;46898;-68
2022/01/16 06:09:52;;;;;;;;;53.00;42.50;;;;;2.24;73.07;102182.06;5057392;28;45478;-67
2022/01/16 06:12:18;;;;;;;;;57.75;40.00;;;;;2.31;73.11;102212.72;5057459;28;45522;-68
2022/01/16 06:14:43;;;;;;;;;64.75;46.75;;;;;2.27;74.44;102232.84;5056770;28;45250;-67
2022/01/16 06:17:09;;;;;;;;;51.00;42.25;;;;;2.30;73.02;102235.47;5038591;28;45323;-66
2022/01/16 06:19:34;;;;;;;;;47.00;39.25;;;;;2.36;73.42;102227.63;5056285;28;45432;-66
2022/01/16 06:21:59;;;;;;;;;43.50;38.25;;;;;2.29;73.43;102231.09;5056826;28;45489;-66
2022/01/16 06:24:25;;;;;;;;;48.00;42.50;;;;;2.26;73.54;102223.22;5057669;28;45597;-66
2022/01/16 06:26:50;;;;;;;;;46.75;29.25;;;;;2.31;73.46;102234.59;5057084;28;47126;-67
2022/01/16 06:29:17;;;;;;;;;39.75;33.00;;;;;2.32;73.63;102238.97;5039167;28;45316;-69
2022/01/16 06:31:42;;;;;;;;;45.75;36.75;;;;;2.35;73.80;102239.00;5056896;28;45346;-66
2022/01/16 06:34:08;;;;;;;;;64.00;37.50;;;;;2.30;73.49;102222.34;5057124;28;45538;-65
2022/01/16 06:36:35;;;;;;;;;44.75;38.00;;;;;2.34;73.52;102237.25;5056864;28;46040;-64
2022/01/16 06:39:03;;;;;;;;;48.25;36.25;;;;;2.34;73.22;102237.25;5056155;28;46722;-64
2022/01/16 06:41:29;;;;;;;;;60.00;39.75;;;;;2.33;73.55;102230.22;5038910;28;45541;-67
2022/01/16 06:43:54;;;;;;;;;44.75;41.50;;;;;2.41;73.01;102232.00;5056825;28;45481;-63
2022/01/16 06:46:20;;;;;;;;;53.50;40.50;;;;;2.47;73.02;102234.66;5038033;28;45370;-69
2022/01/16 06:48:45;;;;;;;;;50.50;37.25;;;;;2.47;72.85;102232.03;5056786;28;45280;-66
2022/01/16 06:51:10;;;;;;;;;55.00;36.75;;;;;2.46;72.99;102230.25;5051529;28;45358;-66
2022/01/16 06:53:36;;;;;;;;;37.50;31.50;;;;;2.44;73.33;102248.66;5056131;28;45544;-67
2022/01/16 06:56:03;;;;;;;;;44.75;32.50;;;;;2.46;72.94;102256.53;5056285;28;45466;-64
2022/01/16 06:58:28;;;;;;;;;39.00;34.00;;;;;2.33;73.63;102266.97;5055250;28;45358;-67
2022/01/16 07:00:54;;;;;;;;;35.50;28.50;;;;;2.43;73.69;102265.28;5054966;28;45512;-67
2022/01/16 07:03:19;;;;;;;;;38.50;35.50;;;;;2.46;73.56;102264.41;5056903;28;45226;-66
2022/01/16 07:05:45;;;;;;;;;43.00;29.50;;;;;2.46;73.37;102288.03;5036927;28;45904;-67
2022/01/16 07:08:11;;;;;;;;;45.25;32.75;;;;;2.48;73.38;102294.19;5055825;28;45344;-67
2022/01/16 07:10:37;;;;;;;;;36.75;27.75;;;;;2.44;73.48;102292.41;5055869;28;45317;-69
2022/01/16 07:13:03;;;;;;;;;39.75;30.25;;;;;2.49;73.34;102293.34;5037672;28;45482;-66
2022/01/16 07:15:29;;;;;;;;;48.50;32.75;;;;;2.54;73.01;102287.22;5056185;28;45447;-67
2022/01/16 07:17:54;;;;;;;;;31.25;27.00;;;;;2.51;72.67;102283.69;5054740;28;45439;-65
2022/01/16 07:20:19;;;;;;;;;33.50;24.00;;;;;2.57;72.62;102286.34;5056058;28;45558;-66
2022/01/16 07:22:45;;;;;;;;;38.00;26.00;;;;;2.58;72.69;102272.34;5050797;28;45250;-66
2022/01/16 07:25:12;;;;;;;;;34.50;24.50;;;;;2.53;72.65;102247.81;5049057;28;46553;-64
2022/01/16 07:27:37;;;;;;;;;24.75;23.00;;;;;2.59;72.47;102253.06;5056097;28;45476;-64
2022/01/16 07:30:04;;;;;;;;;30.00;26.00;;;;;2.52;73.34;102301.22;5050047;28;45396;-66
2022/01/16 07:32:30;;;;;;;;;33.50;29.75;;;;;2.54;73.45;102317.84;5055899;28;45520;-64
2022/01/16 07:34:55;;;;;;;;;36.00;23.75;;;;;2.53;73.33;102300.34;5048366;28;46465;-64
2022/01/16 07:37:21;;;;;;;;;21.50;17.25;;;;;2.53;73.66;102318.72;5056496;28;45243;-63
2022/01/16 07:39:47;;;;;;;;;28.00;22.50;;;;;2.60;73.39;102320.50;5053106;28;45434;-67
2022/01/16 07:42:13;;;;;;;;;32.75;24.00;;;;;2.61;73.28;102319.66;5064606;28;45304;-63
2022/01/16 07:44:38;;;;;;;;;34.25;23.75;;;;;2.59;73.52;102326.63;5053471;28;45467;-66
2022/01/16 07:47:04;;;;;;;;;30.25;25.00;;;;;2.61;73.40;102319.66;5056007;28;45422;-66
2022/01/16 07:49:30;;;;;;;;;32.00;28.50;;;;;2.58;73.57;102314.34;5032734;28;46039;-65
2022/01/16 07:51:55;;;;;;;;;29.75;27.50;;;;;2.67;73.69;102324.91;5052764;28;46788;-64
2022/01/16 07:54:21;;;;;;;;;28.75;21.00;;;;;2.71;73.73;102303.03;5053216;28;46076;-57
2022/01/16 07:56:47;;;;;;;;;31.25;27.50;;;;;2.64;73.67;102299.50;5034202;28;45423;-62
2022/01/16 07:59:13;;;;;;;;;39.25;30.50;;;;;2.69;73.40;102283.75;5037725;28;45397;-63
2022/01/16 08:01:38;;;;;;;;;42.00;30.50;;;;;2.70;73.41;102277.63;5055417;28;45417;-65
2022/01/16 08:04:04;;;;;;;;;37.25;27.75;;;;;2.78;73.44;102294.31;5051562;28;46192;-64
2022/01/16 08:06:29;;;;;;;;;28.75;26.50;;;;;2.89;73.20;102284.72;5044493;28;45463;-64
2022/01/16 08:08:57;;;;;;;;;31.50;25.00;;;;;2.93;72.63;102290.84;5053434;28;45331;-64
2022/01/16 08:11:22;;;;;;;;;22.25;21.00;;;;;2.96;72.73;102296.97;5035190;28;45486;-65
2022/01/16 08:13:48;;;;;;;;;31.25;25.00;;;;;2.95;72.61;102295.22;5054146;28;46116;-63
2022/01/16 08:16:14;;;;;;;;;29.75;25.00;;;;;3.03;72.62;102307.53;5050668;28;45427;-63
2022/01/16 08:18:40;;;;;;;;;27.00;24.25;;;;;2.99;73.24;102295.22;5052433;28;45540;-66
2022/01/16 08:21:06;;;;;;;;;29.50;29.50;;;;;3.10;72.44;102309.28;5039656;28;45366;-63
2022/01/16 08:23:31;;;;;;;;;28.25;19.50;;;;;3.09;72.85;102313.66;5039675;28;45571;-67
2022/01/16 08:25:57;;;;;;;;;35.50;22.25;;;;;3.15;72.26;102307.56;5057691;28;46022;-60
2022/01/16 08:28:23;;;;;;;;;30.75;26.00;;;;;3.20;72.31;102311.06;5057828;28;45515;-65
2022/01/16 08:30:48;;;;;;;;;38.75;27.75;;;;;3.21;72.54;102312.81;5029719;28;45664;-66
2022/01/16 08:33:14;;;;;;;;;31.50;28.75;;;;;3.30;72.40;102307.56;5039014;28;45375;-67
2022/01/16 08:35:39;;;;;;;;;38.25;29.75;;;;;3.30;72.09;102307.56;5055158;28;45473;-66
2022/01/16 08:38:05;;;;;;;;;42.75;24.00;;;;;3.35;72.34;102300.53;5055202;28;45480;-66
2022/01/16 08:40:30;;;;;;;;;37.25;28.50;;;;;3.40;72.75;102309.34;5058661;28;45518;-67
2022/01/16 08:42:56;;;;;;;;;27.25;22.25;;;;;3.42;72.38;102310.22;5058794;28;45481;-64
2022/01/16 08:45:21;;;;;;;;;27.50;24.50;;;;;3.46;72.36;102311.97;5028910;28;45539;-62
2022/01/16 08:47:46;;;;;;;;;28.50;25.50;;;;;3.51;72.61;102302.31;5056129;28;45574;-66
2022/01/16 08:50:14;;;;;;;;;35.25;26.00;;;;;3.56;71.93;102312.84;5057031;28;45578;-65
2022/01/16 08:52:40;;;;;;;;;24.25;23.75;;;;;3.55;72.35;102309.34;5054216;28;46641;-65
2022/01/16 08:55:10;;;;;;;;;34.75;25.75;;;;;3.53;72.43;102311.09;5071192;28;45228;-62
2022/01/16 08:57:36;;;;;;;;;38.50;30.00;;;;;3.67;72.36;102331.28;5058746;28;45398;-66
2022/01/16 09:00:04;;;;;;;;;27.50;25.75;;;;;3.71;72.05;102327.75;5058377;28;47036;-65
2022/01/16 09:02:29;;;;;;;;;24.50;20.75;;;;;3.73;71.95;102332.13;5044039;28;48100;-63
2022/01/16 09:04:55;;;;;;;;;28.25;19.50;;;;;3.72;71.65;102342.66;5056268;28;45457;-63
2022/01/16 09:07:20;;;;;;;;;30.25;26.25;;;;;3.65;71.91;102343.56;5057569;28;45219;-63
2022/01/16 09:09:46;;;;;;;;;33.00;26.75;;;;;3.65;72.15;102346.19;5058070;28;45225;-63
2022/01/16 09:12:11;;;;;;;;;35.25;26.00;;;;;3.59;71.96;102335.66;5058045;28;46106;-64
2022/01/16 09:14:37;;;;;;;;;43.25;27.50;;;;;3.68;72.05;102339.16;5058008;28;45854;-63
2022/01/16 09:17:03;;;;;;;;;27.25;25.50;;;;;3.76;71.80;102345.28;5040146;28;45307;-65
2022/01/16 09:19:29;;;;;;;;;37.00;32.50;;;;;3.80;71.41;102333.03;5057919;28;45609;-64
2022/01/16 09:21:55;;;;;;;;;32.75;25.75;;;;;3.93;71.36;102347.94;5057567;28;45941;-60
2022/01/16 09:24:21;;;;;;;;;31.75;24.50;;;;;3.99;71.32;102358.44;5058161;28;45320;-62
2022/01/16 09:26:46;;;;;;;;;28.75;21.50;;;;;3.96;71.50;102353.19;5058188;28;45349;-61
2022/01/16 09:29:12;;;;;;;;;29.75;24.25;;;;;3.91;71.31;102368.13;5039169;28;45504;-64
2022/01/16 09:31:37;;;;;;;;;36.00;28.00;;;;;3.90;71.66;102363.72;5057660;28;46186;-61
2022/01/16 09:34:02;;;;;;;;;24.25;20.00;;;;;3.90;71.28;102361.06;5057485;28;45439;-63
2022/01/16 09:36:28;;;;;;;;;28.75;20.75;;;;;3.94;71.46;102352.31;5057578;28;45469;-62
2022/01/16 09:38:53;;;;;;;;;42.50;29.50;;;;;4.06;71.10;102365.47;5057337;28;45157;-63
2022/01/16 09:41:20;;;;;;;;;35.00;31.25;;;;;4.14;70.83;102363.69;5056750;28;45344;-64
2022/01/16 09:43:49;;;;;;;;;31.75;24.75;;;;;4.18;70.37;102368.97;5056797;28;45215;-64
2022/01/16 09:46:14;;;;;;;;;37.75;28.25;;;;;4.17;70.21;102372.47;5057462;28;45456;-63
2022/01/16 09:48:41;;;;;;;;;30.75;23.25;;;;;4.11;70.57;102366.34;5057801;28;45513;-64
2022/01/16 09:51:07;;;;;;;;;24.50;23.25;;;;;4.13;70.54;102374.22;5056746;28;46190;-63
2022/01/16 09:53:32;;;;;;;;;36.00;31.75;;;;;4.17;70.72;102367.19;5038926;28;45514;-63
2022/01/16 09:55:58;;;;;;;;;31.00;28.00;;;;;4.23;70.96;102368.06;5039446;28;45295;-63
2022/01/16 09:58:23;;;;;;;;;34.50;27.25;;;;;4.32;69.83;102367.19;5039116;28;45632;-62
2022/01/16 10:00:52;;;;;;;;;49.50;32.50;;;;;4.21;69.46;102358.44;5039486;28;46874;-64
2022/01/16 10:03:35;;;;;;;;;26.75;25.75;;;;;4.43;69.20;102368.06;5043239;28;45479;-66
2022/01/16 10:06:10;;;;;;;;;18.25;14.50;;;;;4.52;69.22;102365.38;5039197;28;45346;-63
2022/01/16 10:08:37;;;;;;;;;20.00;18.00;;;;;4.55;68.94;102344.28;5057377;28;45682;-64
2022/01/16 10:11:24;;;;;;;;;25.25;20.75;;;;;4.64;68.37;102360.06;5038626;28;45552;-64
2022/01/16 10:14:03;;;;;;;;;20.25;19.75;;;;;4.77;68.38;102357.38;5056944;28;45354;-63
2022/01/16 10:16:36;;;;;;;;;26.50;23.25;;;;;4.86;67.46;102370.53;5040177;28;45413;-61
2022/01/16 10:19:04;;;;;;;;;23.75;22.25;;;;;4.79;67.77;102369.69;5034997;28;45366;-64
2022/01/16 10:21:35;;;;;;;;;4.50;0.00;;;;;4.74;67.18;102366.19;5056754;28;46359;-61
2022/01/16 10:24:15;;;;;;;;;24.50;21.00;;;;;4.72;68.24;102371.47;5056617;28;45461;-60
2022/01/16 10:26:41;;;;;;;;;26.00;24.00;;;;;4.67;67.87;102375.88;5056070;28;45329;-61
2022/01/16 10:29:08;;;;;;;;;26.75;19.75;;;;;4.74;68.55;102377.59;5056051;28;47087;-62
2022/01/16 10:31:33;;;;;;;;;26.75;22.50;;;;;4.81;67.77;102381.09;5056405;28;46303;-59
2022/01/16 10:33:59;;;;;;;;;31.50;18.00;;;;;4.92;67.85;102375.78;5056871;28;45481;-62
2022/01/16 10:36:35;;;;;;;;;31.25;24.00;;;;;4.98;67.40;102350.28;5057569;28;45326;-61
2022/01/16 10:39:11;;;;;;;;;29.25;20.25;;;;;5.09;67.14;102362.53;5056078;28;45437;-60
2022/01/16 10:41:37;;;;;;;;;22.75;20.25;;;;;5.12;66.67;102368.66;5037880;28;48301;-62
2022/01/16 10:44:03;;;;;;;;;27.50;19.00;;;;;5.10;67.08;102367.81;5052941;28;45525;-60
2022/01/16 10:46:29;;;;;;;;;24.25;20.50;;;;;5.18;66.26;102368.63;5056421;28;45262;-61
2022/01/16 10:49:14;;;;;;;;;27.25;20.25;;;;;5.25;66.19;102370.34;5056946;28;45914;-61
2022/01/16 10:51:39;;;;;;;;;35.00;24.50;;;;;5.37;66.66;102373.81;5056225;28;45722;-62
2022/01/16 10:54:31;;;;;;;;;21.25;19.75;;;;;5.45;65.53;102371.97;5052868;28;45480;-59
2022/01/16 10:56:57;;;;;;;;;29.50;24.50;;;;;5.40;66.50;102364.09;5036806;28;45226;-61
2022/01/16 10:59:24;;;;;;;;;32.75;30.50;;;;;5.46;66.10;102369.31;5027511;28;45725;-59
2022/01/16 11:02:08;;;;;;;;;27.75;22.00;;;;;5.54;66.05;102350.81;5056385;28;45994;-64
2022/01/16 11:04:34;;;;;;;;;21.75;19.25;;;;;5.57;65.46;102367.50;5056595;28;45408;-63
2022/01/16 11:07:01;;;;;;;;;20.25;18.50;;;;;5.60;66.00;102369.25;5037152;28;45541;-62
2022/01/16 11:09:28;;;;;;;;;17.75;14.00;;;;;5.64;66.09;102368.34;5056862;28;45444;-61
2022/01/16 11:12:01;;;;;;;;;26.50;19.50;;;;;5.56;65.41;102372.78;5056530;28;45348;-61
2022/01/16 11:14:28;;;;;;;;;30.00;23.25;;;;;5.46;66.04;102363.16;5056008;28;45391;-61
2022/01/16 11:16:55;;;;;;;;;25.50;25.00;;;;;5.48;67.14;102362.28;5055264;28;45515;-61
2022/01/16 11:19:24;;;;;;;;;27.25;23.75;;;;;5.59;67.05;102356.91;5056179;28;45502;-61
2022/01/16 11:21:54;;;;;;;;;24.00;21.25;;;;;5.67;66.11;102364.78;5056193;28;46206;-61
2022/01/16 11:24:36;;;;;;;;;25.00;25.00;;;;;5.85;65.57;102362.00;5056161;28;45499;-62
2022/01/16 11:27:02;;;;;;;;;28.25;24.75;;;;;6.08;65.53;102375.03;5055504;28;45351;-62
2022/01/16 11:29:29;;;;;;;;;29.50;27.75;;;;;6.09;65.27;102345.09;5056030;28;45663;-60
2022/01/16 11:31:57;;;;;;;;;24.00;24.00;;;;;6.13;65.67;102362.69;5035460;28;47726;-62
2022/01/16 11:34:23;;;;;;;;;27.50;22.50;;;;;6.13;64.77;102378.53;5037882;28;45366;-61
2022/01/16 11:36:48;;;;;;;;;26.75;21.25;;;;;5.99;66.11;102365.47;5056254;28;45425;-62
2022/01/16 11:39:14;;;;;;;;;28.25;20.75;;;;;5.97;65.27;102372.50;5056346;28;45209;-63
2022/01/16 11:41:50;;;;;;;;;25.75;21.50;;;;;5.88;65.23;102368.16;5055900;28;45468;-63
2022/01/16 11:44:30;;;;;;;;;18.25;17.00;;;;;5.80;66.08;102369.97;5055898;28;45233;-63
2022/01/16 11:46:59;;;;;;;;;27.25;24.50;;;;;5.73;67.21;102380.56;5055806;28;45273;-61
2022/01/16 11:49:41;;;;;;;;;25.50;24.25;;;;;5.77;66.61;102372.63;5056441;28;45381;-64
2022/01/16 11:52:18;;;;;;;;;26.75;23.50;;;;;5.75;67.13;102384.09;5055618;28;46427;-63
2022/01/16 11:54:49;;;;;;;;;33.00;23.00;;;;;5.72;67.34;102371.78;5055703;28;45371;-62
2022/01/16 11:57:25;;;;;;;;;29.50;27.00;;;;;5.76;66.38;102370.88;5037760;28;45437;-62